createdAt,value
2022-11-08T00:00:08.102Z,9.46
2022-11-08T00:03:10.064Z,9.43
2022-11-08T00:06:14.084Z,9.42
2022-11-08T00:09:14.411Z,9.40
2022-11-08T00:12:14.942Z,9.39
2022-11-08T00:14:56.761Z,9.38
2022-11-08T00:17:38.733Z,9.36
2022-11-08T00:20:20.527Z,9.34
2022-11-08T00:23:02.321Z,9.33
2022-11-08T00:25:44.115Z,9.32
2022-11-08T00:28:25.911Z,9.29
2022-11-08T00:31:08.314Z,9.27
2022-11-08T00:33:50.107Z,9.23
2022-11-08T00:36:31.901Z,9.21
2022-11-08T00:39:13.694Z,9.17
2022-11-08T00:41:55.418Z,9.14
2022-11-08T00:44:38.406Z,9.11
2022-11-08T00:47:20.098Z,9.08
2022-11-08T00:50:01.900Z,9.05
2022-11-08T00:52:43.685Z,9.01
2022-11-08T00:55:25.581Z,8.98
2022-11-08T00:58:07.374Z,8.95
2022-11-08T01:00:49.202Z,8.92
2022-11-08T01:03:31.063Z,8.89
2022-11-08T01:06:14.699Z,8.85
2022-11-08T01:08:57.107Z,8.82
2022-11-08T01:11:40.134Z,8.79
2022-11-08T01:14:21.925Z,8.74
2022-11-08T01:17:03.715Z,8.70
2022-11-08T01:19:45.508Z,8.67
2022-11-08T01:22:27.201Z,8.64
2022-11-08T01:25:09.506Z,8.63
2022-11-08T01:27:51.402Z,8.60
2022-11-08T01:30:37.646Z,8.58
2022-11-08T01:33:19.392Z,8.55
2022-11-08T01:36:01.193Z,8.53
2022-11-08T01:38:43.285Z,8.51
2022-11-08T01:41:26.819Z,8.48
2022-11-08T01:44:16.264Z,8.45
2022-11-08T01:46:58.293Z,8.43
2022-11-08T01:49:46.348Z,8.39
2022-11-08T01:52:33.870Z,8.38
2022-11-08T01:55:22.002Z,8.35
2022-11-08T01:58:10.793Z,8.33
2022-11-08T02:00:53.440Z,8.32
2022-11-08T02:03:36.288Z,8.29
2022-11-08T02:06:18.861Z,8.27
2022-11-08T02:09:03.972Z,8.26
2022-11-08T02:11:48.285Z,8.22
2022-11-08T02:14:31.038Z,8.18
2022-11-08T02:17:12.935Z,8.14
2022-11-08T02:19:54.728Z,8.09
2022-11-08T02:22:45.533Z,8.03
2022-11-08T02:25:27.429Z,7.98
2022-11-08T02:28:09.222Z,7.92
2022-11-08T02:30:50.915Z,7.85
2022-11-08T02:33:33.424Z,7.80
2022-11-08T02:36:21.595Z,7.75
2022-11-08T02:39:03.768Z,7.67
2022-11-08T02:41:45.579Z,7.62
2022-11-08T02:44:27.333Z,7.56
2022-11-08T02:47:09.250Z,7.52
2022-11-08T02:49:51.351Z,7.48
2022-11-08T02:52:33.044Z,7.43
2022-11-08T02:55:14.835Z,7.37
2022-11-08T02:57:57.556Z,7.32
2022-11-08T03:00:40.070Z,7.28
2022-11-08T03:03:21.854Z,7.19
2022-11-08T03:06:03.752Z,7.07
2022-11-08T03:08:45.439Z,6.92
2022-11-08T03:11:27.952Z,6.77
2022-11-08T03:14:09.743Z,6.65
2022-11-08T03:16:51.433Z,6.52
2022-11-08T03:19:33.226Z,6.41
2022-11-08T03:22:15.738Z,6.30
2022-11-08T03:24:57.534Z,6.22
2022-11-08T03:27:39.530Z,6.15
2022-11-08T03:30:21.834Z,6.09
2022-11-08T03:33:04.241Z,6.08
2022-11-08T03:35:46.034Z,6.06
2022-11-08T03:38:27.831Z,6.07
2022-11-08T03:41:09.521Z,6.05
2022-11-08T03:43:51.313Z,6.03
2022-11-08T03:46:33.105Z,6.02
2022-11-08T03:49:14.898Z,6.01
2022-11-08T03:51:56.591Z,6.02
2022-11-08T03:54:38.383Z,6.01
2022-11-08T03:57:20.180Z,6.01
2022-11-08T04:00:01.912Z,6.03
2022-11-08T04:02:55.153Z,6.05
2022-11-08T04:05:36.923Z,6.07
2022-11-08T04:08:18.865Z,6.08
2022-11-08T04:11:19.555Z,6.07
2022-11-08T04:14:20.293Z,6.07
2022-11-08T04:17:01.983Z,6.06
2022-11-08T04:20:02.463Z,6.03
2022-11-08T04:22:44.207Z,6.02
2022-11-08T04:25:27.313Z,5.99
2022-11-08T04:28:11.787Z,5.95
2022-11-08T04:30:59.218Z,5.92
2022-11-08T04:33:41.520Z,5.88
2022-11-08T04:36:23.311Z,5.82
2022-11-08T04:39:05.014Z,5.74
2022-11-08T04:41:46.797Z,5.64
2022-11-08T04:44:28.463Z,5.55
2022-11-08T04:47:10.383Z,5.46
2022-11-08T04:49:52.073Z,5.39
2022-11-08T04:52:33.765Z,5.34
2022-11-08T04:55:15.557Z,5.31
2022-11-08T04:57:59.195Z,5.31
2022-11-08T05:00:40.885Z,5.30
2022-11-08T05:03:22.679Z,5.32
2022-11-08T05:06:07.440Z,5.34
2022-11-08T05:08:49.953Z,5.35
2022-11-08T05:11:31.745Z,5.36
2022-11-08T05:14:13.640Z,5.34
2022-11-08T05:16:55.472Z,5.35
2022-11-08T05:19:55.865Z,5.38
2022-11-08T05:22:56.602Z,5.41
2022-11-08T05:25:39.110Z,5.41
2022-11-08T05:28:22.134Z,5.41
2022-11-08T05:31:04.371Z,5.38
2022-11-08T05:33:46.438Z,5.31
2022-11-08T05:36:28.950Z,5.23
2022-11-08T05:39:10.740Z,5.22
2022-11-08T05:41:52.435Z,5.21
2022-11-08T05:44:34.226Z,5.21
2022-11-08T05:47:16.019Z,5.20
2022-11-08T05:49:58.018Z,5.19
2022-11-08T05:52:40.321Z,5.17
2022-11-08T05:55:22.218Z,5.14
2022-11-08T05:58:04.319Z,5.12
2022-11-08T06:00:46.009Z,5.10
2022-11-08T06:03:28.529Z,5.08
2022-11-08T06:06:16.354Z,5.06
2022-11-08T06:08:58.150Z,5.07
2022-11-08T06:11:40.043Z,5.07
2022-11-08T06:14:21.939Z,5.07
2022-11-08T06:17:03.732Z,5.09
2022-11-08T06:19:45.730Z,5.14
2022-11-08T06:22:31.657Z,5.19
2022-11-08T06:25:13.413Z,5.26
2022-11-08T06:27:55.207Z,5.32
2022-11-08T06:30:37.000Z,5.38
2022-11-08T06:33:20.717Z,5.46
2022-11-08T06:36:03.255Z,5.54
2022-11-08T06:38:45.041Z,5.60
2022-11-08T06:41:28.050Z,5.65
2022-11-08T06:44:09.858Z,5.67
2022-11-08T06:46:51.651Z,5.70
2022-11-08T06:49:33.400Z,5.75
2022-11-08T06:52:15.136Z,5.80
2022-11-08T06:54:56.931Z,5.84
2022-11-08T06:57:38.655Z,5.90
2022-11-08T07:00:20.834Z,5.94
2022-11-08T07:03:04.089Z,5.96
2022-11-08T07:05:46.051Z,5.99
2022-11-08T07:08:27.841Z,6.02
2022-11-08T07:11:10.350Z,6.08
2022-11-08T07:13:52.041Z,6.18
2022-11-08T07:16:33.835Z,6.28
2022-11-08T07:19:15.729Z,6.39
2022-11-08T07:21:57.524Z,6.54
2022-11-08T07:24:39.317Z,6.74
2022-11-08T07:27:21.112Z,6.92
2022-11-08T07:30:04.030Z,7.10
2022-11-08T07:32:47.927Z,7.28
2022-11-08T07:35:30.792Z,7.46
2022-11-08T07:38:15.109Z,7.65
2022-11-08T07:41:02.479Z,7.84
2022-11-08T07:43:45.287Z,8.03
2022-11-08T07:46:32.200Z,8.24
2022-11-08T07:49:15.476Z,8.46
2022-11-08T07:51:58.038Z,8.69
2022-11-08T07:54:40.401Z,8.92
2022-11-08T07:57:23.677Z,9.12
2022-11-08T08:00:09.558Z,9.31
2022-11-08T08:02:59.556Z,9.51
2022-11-08T08:05:44.596Z,9.67
2022-11-08T08:08:27.848Z,9.83
2022-11-08T08:11:11.385Z,10.02
2022-11-08T08:13:56.618Z,10.21
2022-11-08T08:16:38.940Z,10.40
2022-11-08T08:19:20.650Z,10.56
2022-11-08T08:22:02.341Z,10.70
2022-11-08T08:24:44.136Z,10.85
2022-11-08T08:27:25.928Z,10.99
2022-11-08T08:30:08.438Z,11.25
2022-11-08T08:33:08.335Z,11.58
2022-11-08T08:35:54.249Z,11.96
2022-11-08T08:38:40.027Z,12.27
2022-11-08T08:41:27.101Z,12.42
2022-11-08T08:44:12.707Z,12.44
2022-11-08T08:46:55.857Z,12.37
2022-11-08T08:49:37.556Z,12.31
2022-11-08T08:52:19.649Z,12.26
2022-11-08T08:55:02.080Z,12.24
2022-11-08T08:57:52.417Z,12.28
2022-11-08T09:03:40.807Z,12.54
2022-11-08T09:06:24.829Z,12.71
2022-11-08T09:09:08.151Z,12.85
2022-11-08T09:11:52.759Z,12.97
2022-11-08T09:14:35.503Z,13.06
2022-11-08T09:17:17.917Z,13.14
2022-11-08T09:20:00.811Z,13.22
2022-11-08T09:22:43.965Z,13.32
2022-11-08T09:25:33.215Z,13.43
2022-11-08T09:28:17.108Z,13.55
2022-11-08T09:31:04.466Z,13.69
2022-11-08T09:33:50.689Z,13.84
2022-11-08T09:36:33.544Z,14.00
2022-11-08T09:39:16.592Z,14.14
2022-11-08T09:42:15.422Z,14.23
2022-11-08T09:45:13.632Z,14.33
2022-11-08T09:48:05.194Z,14.41
2022-11-08T09:50:49.449Z,14.42
2022-11-08T09:53:47.632Z,14.45
2022-11-08T09:56:35.974Z,14.53
2022-11-08T09:59:26.895Z,14.64
2022-11-08T10:02:27.272Z,14.79
2022-11-08T10:05:16.202Z,14.90
2022-11-08T10:08:09.166Z,14.96
2022-11-08T10:11:08.519Z,14.96
2022-11-08T10:14:19.454Z,14.98
2022-11-08T10:17:31.525Z,15.02
2022-11-08T10:20:24.964Z,15.00
2022-11-08T10:23:12.696Z,14.99
2022-11-08T10:26:05.460Z,15.01
2022-11-08T10:29:16.070Z,15.11
2022-11-08T10:32:12.861Z,15.27
2022-11-08T10:35:02.845Z,15.41
2022-11-08T10:37:44.896Z,15.51
2022-11-08T10:40:37.696Z,15.63
2022-11-08T10:43:30.139Z,15.77
2022-11-08T10:46:26.683Z,15.83
2022-11-08T10:49:19.738Z,15.87
2022-11-08T10:52:18.937Z,15.91
2022-11-08T10:55:03.199Z,15.98
2022-11-08T10:57:48.674Z,16.05
2022-11-08T11:00:32.919Z,16.10
2022-11-08T11:03:14.543Z,16.17
2022-11-08T11:06:01.014Z,16.26
2022-11-08T11:08:54.173Z,16.33
2022-11-08T11:11:38.541Z,16.34
2022-11-08T11:14:23.697Z,16.31
2022-11-08T11:17:15.486Z,16.25
2022-11-08T11:19:58.138Z,16.20
2022-11-08T11:22:46.177Z,16.16
2022-11-08T11:25:28.722Z,16.13
2022-11-08T11:28:14.226Z,16.10
2022-11-08T11:31:15.232Z,16.04
2022-11-08T11:33:58.541Z,15.97
2022-11-08T11:36:40.438Z,15.94
2022-11-08T11:39:32.677Z,15.95
2022-11-08T11:45:36.445Z,15.81
2022-11-08T11:48:24.546Z,15.74
2022-11-08T11:51:10.732Z,15.67
2022-11-08T11:53:52.739Z,15.60
2022-11-08T11:56:48.872Z,15.54
2022-11-08T12:00:08.550Z,15.52
2022-11-08T12:03:07.444Z,15.45
2022-11-08T12:06:12.925Z,15.37
2022-11-08T12:09:28.304Z,15.29
2022-11-08T12:12:48.877Z,15.19
2022-11-08T12:16:01.390Z,15.10
2022-11-08T12:18:57.328Z,15.03
2022-11-08T12:21:48.450Z,14.98
2022-11-08T12:24:44.018Z,14.94
2022-11-08T12:27:40.685Z,14.88
2022-11-08T12:30:32.241Z,14.81
2022-11-08T12:33:23.011Z,14.76
2022-11-08T12:36:13.510Z,14.73
2022-11-08T12:39:24.098Z,14.71
2022-11-08T12:42:05.767Z,14.69
2022-11-08T12:45:16.442Z,14.67
2022-11-08T12:48:06.832Z,14.64
2022-11-08T12:50:48.524Z,14.60
2022-11-08T12:53:43.289Z,14.57
2022-11-08T12:56:38.839Z,14.54
2022-11-08T12:59:37.731Z,14.51
2022-11-08T13:02:26.767Z,14.47
2022-11-08T13:05:27.635Z,14.42
2022-11-08T13:08:35.438Z,14.40
2022-11-08T13:11:27.458Z,14.37
2022-11-08T13:14:18.041Z,14.35
2022-11-08T13:17:09.081Z,14.33
2022-11-08T13:20:00.647Z,14.32
2022-11-08T13:22:57.781Z,14.30
2022-11-08T13:25:41.561Z,14.28
2022-11-08T13:28:40.697Z,14.26
2022-11-08T13:31:33.349Z,14.23
2022-11-08T13:34:30.394Z,14.19
2022-11-08T13:37:27.650Z,14.15
2022-11-08T13:40:44.054Z,14.09
2022-11-08T13:43:31.480Z,14.05
2022-11-08T13:46:29.796Z,14.02
2022-11-08T13:49:20.053Z,13.98
2022-11-08T13:52:40.042Z,13.93
2022-11-08T13:55:43.749Z,13.89
2022-11-08T13:58:36.233Z,13.85
2022-11-08T14:01:18.403Z,13.79
2022-11-08T14:04:00.700Z,13.73
2022-11-08T14:07:12.559Z,13.67
2022-11-08T14:09:59.791Z,13.60
2022-11-08T14:12:47.787Z,13.56
2022-11-08T14:15:35.796Z,13.50
2022-11-08T14:18:20.460Z,13.44
2022-11-08T14:21:05.024Z,13.40
2022-11-08T14:23:51.024Z,13.33
2022-11-08T14:26:32.806Z,13.27
2022-11-08T14:29:17.665Z,13.21
2022-11-08T14:32:19.538Z,13.14
2022-11-08T14:35:33.886Z,13.02
2022-11-08T14:38:15.721Z,12.89
2022-11-08T14:41:03.102Z,12.80
2022-11-08T14:43:46.940Z,12.70
2022-11-08T14:46:32.222Z,12.59
2022-11-08T14:49:14.017Z,12.49
2022-11-08T14:52:14.371Z,12.39
2022-11-08T14:55:04.431Z,12.29
2022-11-08T14:57:47.260Z,12.20
2022-11-08T15:00:29.041Z,12.10
2022-11-08T15:03:16.240Z,11.98
2022-11-08T15:06:01.542Z,11.89
2022-11-08T15:08:49.239Z,11.79
2022-11-08T15:11:34.332Z,11.64
2022-11-08T15:14:21.702Z,11.53
2022-11-08T15:17:04.091Z,11.42
2022-11-08T15:19:46.886Z,11.32
2022-11-08T15:22:34.806Z,11.24
2022-11-08T15:25:43.447Z,11.17
2022-11-08T15:28:31.736Z,11.02
2022-11-08T15:31:14.147Z,10.89
2022-11-08T15:33:59.377Z,10.76
2022-11-08T15:36:41.197Z,10.63
2022-11-08T15:39:39.346Z,10.51
2022-11-08T15:42:23.615Z,10.38
2022-11-08T15:45:23.033Z,10.27
2022-11-08T15:48:29.266Z,10.16
2022-11-08T15:51:12.497Z,10.04
2022-11-08T15:53:54.289Z,9.96
2022-11-08T15:57:08.068Z,9.89
2022-11-08T15:59:54.024Z,9.80
2022-11-08T16:02:35.817Z,9.75
2022-11-08T16:05:20.148Z,9.71
2022-11-08T16:08:01.862Z,9.66
2022-11-08T16:10:45.191Z,9.60
2022-11-08T16:13:34.800Z,9.53
2022-11-08T16:16:18.221Z,9.52
2022-11-08T16:19:00.301Z,9.50
2022-11-08T16:21:41.991Z,9.48
2022-11-08T16:24:24.606Z,9.45
2022-11-08T16:27:07.113Z,9.39
2022-11-08T16:29:48.906Z,9.37
2022-11-08T16:32:30.597Z,9.37
2022-11-08T16:35:12.390Z,9.37
2022-11-08T16:37:54.490Z,9.34
2022-11-08T16:40:36.284Z,9.30
2022-11-08T16:43:18.077Z,9.26
2022-11-08T16:46:06.314Z,9.25
2022-11-08T16:48:54.401Z,9.28
2022-11-08T16:51:36.095Z,9.33
2022-11-08T16:54:21.494Z,9.37
2022-11-08T16:57:28.401Z,9.41
2022-11-08T17:00:05.909Z,9.45
2022-11-08T17:02:52.821Z,9.48
2022-11-08T17:05:34.613Z,9.49
2022-11-08T17:08:17.273Z,9.50
2022-11-08T17:10:59.533Z,9.50
2022-11-08T17:13:41.325Z,9.49
2022-11-08T17:16:23.322Z,9.49
2022-11-08T17:19:05.524Z,9.48
2022-11-08T17:21:47.321Z,9.45
2022-11-08T17:24:30.239Z,9.42
2022-11-08T17:27:12.032Z,9.40
2022-11-08T17:29:54.158Z,9.38
2022-11-08T17:32:37.085Z,9.34
2022-11-08T17:35:19.151Z,9.31
2022-11-08T17:38:01.769Z,9.28
2022-11-08T17:40:43.659Z,9.25
2022-11-08T17:43:25.453Z,9.19
2022-11-08T17:46:08.066Z,9.13
2022-11-08T17:48:49.961Z,9.08
2022-11-08T17:51:31.759Z,9.03
2022-11-08T17:54:13.445Z,8.96
2022-11-08T17:56:55.445Z,8.92
2022-11-08T17:59:37.390Z,8.91
2022-11-08T18:02:19.311Z,8.91
2022-11-08T18:05:05.948Z,8.91
2022-11-08T18:07:47.941Z,8.93
2022-11-08T18:10:29.942Z,8.94
2022-11-08T18:13:12.142Z,8.95
2022-11-08T18:15:53.939Z,8.96
2022-11-08T18:18:35.833Z,8.97
2022-11-08T18:21:19.263Z,8.99
2022-11-08T18:24:01.159Z,9.00
2022-11-08T18:26:43.060Z,9.04
2022-11-08T18:29:24.774Z,9.06
2022-11-08T18:32:06.643Z,9.06
2022-11-08T18:34:49.049Z,9.06
2022-11-08T18:37:30.843Z,9.04
2022-11-08T18:40:13.464Z,9.02
2022-11-08T18:42:55.248Z,8.98
2022-11-08T18:45:37.041Z,8.95
2022-11-08T18:48:18.836Z,8.91
2022-11-08T18:51:00.644Z,8.86
2022-11-08T18:53:43.147Z,8.82
2022-11-08T18:56:24.931Z,8.77
2022-11-08T18:59:06.829Z,8.68
2022-11-08T19:01:48.697Z,8.60
2022-11-08T19:04:30.721Z,8.52
2022-11-08T19:07:12.750Z,8.48
2022-11-08T19:09:54.513Z,8.41
2022-11-08T19:12:36.305Z,8.36
2022-11-08T19:15:18.510Z,8.36
2022-11-08T19:18:00.306Z,8.39
2022-11-08T19:20:42.302Z,8.44
2022-11-08T19:23:25.168Z,8.49
2022-11-08T19:26:10.497Z,8.54
2022-11-08T19:28:55.815Z,8.58
2022-11-08T19:31:39.202Z,8.61
2022-11-08T19:34:21.303Z,8.62
2022-11-08T19:37:03.505Z,8.63
2022-11-08T19:39:45.504Z,8.62
2022-11-08T19:42:27.400Z,8.59
2022-11-08T19:45:10.118Z,8.56
2022-11-08T19:47:53.349Z,8.52
2022-11-08T19:50:35.241Z,8.49
2022-11-08T19:53:17.030Z,8.45
2022-11-08T19:56:03.259Z,8.42
2022-11-08T19:58:45.736Z,8.37
2022-11-08T20:01:40.428Z,8.34
2022-11-08T20:04:22.327Z,8.30
2022-11-08T20:07:04.111Z,8.23
2022-11-08T20:09:47.143Z,8.17
2022-11-08T20:12:31.803Z,8.10
2022-11-08T20:15:14.215Z,8.01
2022-11-08T20:17:56.315Z,7.90
2022-11-08T20:20:40.629Z,7.80
2022-11-08T20:23:25.467Z,7.71
2022-11-08T20:26:08.655Z,7.61
2022-11-08T20:28:56.420Z,7.56
2022-11-08T20:31:42.282Z,7.51
2022-11-08T20:34:25.820Z,7.51
2022-11-08T20:37:08.015Z,7.48
2022-11-08T20:39:52.009Z,7.48
2022-11-08T20:42:34.571Z,7.49
2022-11-08T20:45:16.469Z,7.54
2022-11-08T20:47:58.362Z,7.60
2022-11-08T20:50:40.158Z,7.64
2022-11-08T20:53:21.951Z,7.68
2022-11-08T20:56:16.029Z,7.69
2022-11-08T20:58:58.238Z,7.69
2022-11-08T21:01:39.996Z,7.68
2022-11-08T21:04:22.023Z,7.67
2022-11-08T21:10:35.890Z,7.62
2022-11-08T21:13:10.757Z,7.57
2022-11-08T21:15:54.048Z,7.52
2022-11-08T21:18:37.788Z,7.46
2022-11-08T21:21:22.655Z,7.37
2022-11-08T21:24:04.674Z,7.27
2022-11-08T21:26:46.550Z,7.21
2022-11-08T21:29:29.672Z,7.15
2022-11-08T21:32:11.422Z,7.10
2022-11-08T21:34:53.155Z,7.04
2022-11-08T21:37:34.948Z,6.97
2022-11-08T21:40:17.049Z,6.89
2022-11-08T21:42:59.354Z,6.82
2022-11-08T21:45:41.781Z,6.76
2022-11-08T21:48:23.760Z,6.69
2022-11-08T21:51:36.262Z,6.64
2022-11-08T21:54:19.092Z,6.57
2022-11-08T21:57:00.883Z,6.52
2022-11-08T21:59:42.677Z,6.50
2022-11-08T22:02:24.473Z,6.50
2022-11-08T22:05:07.291Z,6.48
2022-11-08T22:07:49.183Z,6.47
2022-11-08T22:10:30.875Z,6.45
2022-11-08T22:13:12.978Z,6.40
2022-11-08T22:15:55.179Z,6.39
2022-11-08T22:18:58.721Z,6.35
2022-11-08T22:21:45.368Z,6.33
2022-11-08T22:24:31.072Z,6.33
2022-11-08T22:27:13.584Z,6.33
2022-11-08T22:29:55.274Z,6.36
2022-11-08T22:32:37.171Z,6.39
2022-11-08T22:35:19.475Z,6.41
2022-11-08T22:38:01.681Z,6.41
2022-11-08T22:40:46.090Z,6.39
2022-11-08T22:43:27.824Z,6.40
2022-11-08T22:46:10.130Z,6.41
2022-11-08T22:48:52.127Z,6.43
2022-11-08T22:51:34.023Z,6.45
2022-11-08T22:54:15.818Z,6.46
2022-11-08T22:56:57.917Z,6.45
2022-11-08T22:59:39.710Z,6.45
2022-11-08T23:02:21.536Z,6.43
2022-11-08T23:05:03.401Z,6.41
2022-11-08T23:07:45.193Z,6.40
2022-11-08T23:10:26.988Z,6.38
2022-11-08T23:13:27.216Z,6.36
2022-11-08T23:16:29.076Z,6.35
2022-11-08T23:19:35.445Z,6.30
2022-11-08T23:22:36.862Z,6.32
2022-11-08T23:25:18.591Z,6.29
2022-11-08T23:28:19.123Z,6.28
2022-11-08T23:31:22.627Z,6.24
2022-11-08T23:34:05.239Z,6.24
2022-11-08T23:36:47.032Z,6.25
2022-11-08T23:39:29.849Z,6.28
2022-11-08T23:42:30.383Z,6.30
2022-11-08T23:45:12.072Z,6.33
2022-11-08T23:47:53.865Z,6.34
2022-11-08T23:50:35.683Z,6.37
2022-11-08T23:53:18.635Z,6.39
2022-11-08T23:56:00.781Z,6.40
2022-11-08T23:58:42.586Z,6.41
